createdAt,value
2023-06-02T00:02:30.285Z,18.86
2023-06-02T00:07:31.582Z,18.83
2023-06-02T00:12:32.893Z,18.80
2023-06-02T00:17:33.847Z,18.77
2023-06-02T00:22:34.880Z,18.71
2023-06-02T00:27:35.958Z,18.67
2023-06-02T00:32:37.253Z,18.63
2023-06-02T00:37:38.435Z,18.63
2023-06-02T00:42:39.745Z,18.66
2023-06-02T00:47:40.821Z,18.68
2023-06-02T00:52:41.962Z,18.70
2023-06-02T00:57:43.922Z,18.67
2023-06-02T01:02:44.921Z,18.66
2023-06-02T01:07:46.131Z,18.62
2023-06-02T01:12:48.076Z,18.58
2023-06-02T01:17:49.789Z,18.53
2023-06-02T01:23:15.947Z,18.47
2023-06-02T01:28:17.210Z,18.44
2023-06-02T01:33:28.229Z,18.44
2023-06-02T01:38:31.848Z,18.47
2023-06-02T01:43:33.089Z,18.47
2023-06-02T01:48:34.250Z,18.44
2023-06-02T01:53:35.409Z,18.37
2023-06-02T01:58:36.569Z,18.29
2023-06-02T02:03:37.940Z,18.21
2023-06-02T02:08:39.308Z,18.12
2023-06-02T02:13:40.565Z,18.01
2023-06-02T02:18:41.933Z,17.92
2023-06-02T02:23:42.992Z,17.87
2023-06-02T02:28:44.045Z,17.88
2023-06-02T02:33:44.971Z,17.86
2023-06-02T02:38:46.038Z,17.82
2023-06-02T02:43:47.332Z,17.77
2023-06-02T02:48:48.335Z,17.69
2023-06-02T02:53:49.971Z,17.64
2023-06-02T02:58:51.255Z,17.55
2023-06-02T03:03:53.105Z,17.50
2023-06-02T03:08:54.067Z,17.44
2023-06-02T03:13:55.319Z,17.40
2023-06-02T03:18:56.506Z,17.41
2023-06-02T03:24:00.712Z,17.49
2023-06-02T03:29:03.411Z,17.58
2023-06-02T03:34:04.790Z,17.66
2023-06-02T03:39:06.060Z,17.70
2023-06-02T03:44:07.208Z,17.72
2023-06-02T03:49:08.364Z,17.78
2023-06-02T03:54:10.239Z,17.85
2023-06-02T03:59:11.409Z,17.96
2023-06-02T04:04:12.483Z,18.10
2023-06-02T04:09:13.651Z,18.21
2023-06-02T04:14:14.623Z,18.30
2023-06-02T04:19:15.762Z,18.41
2023-06-02T04:24:17.124Z,18.49
2023-06-02T04:29:18.106Z,18.57
2023-06-02T04:34:25.803Z,18.66
2023-06-02T04:39:26.842Z,18.77
2023-06-02T04:44:28.033Z,18.91
2023-06-02T04:49:29.169Z,19.09
2023-06-02T04:54:30.334Z,19.28
2023-06-02T04:59:32.410Z,19.54
2023-06-02T05:04:35.064Z,19.78
2023-06-02T05:09:36.374Z,20.07
2023-06-02T05:14:37.433Z,20.31
2023-06-02T05:19:40.763Z,20.52
2023-06-02T05:24:41.895Z,20.72
2023-06-02T05:29:42.870Z,20.88
2023-06-02T05:34:43.912Z,21.08
2023-06-02T05:39:45.190Z,21.28
2023-06-02T05:44:46.269Z,21.48
2023-06-02T05:49:47.190Z,21.67
2023-06-02T05:54:50.202Z,21.83
2023-06-02T05:59:58.848Z,22.00
2023-06-02T06:04:59.899Z,22.15
2023-06-02T06:10:04.218Z,22.34
2023-06-02T06:15:06.118Z,22.54
2023-06-02T06:20:09.966Z,22.73
2023-06-02T06:25:11.304Z,22.92
2023-06-02T06:30:12.575Z,23.09
2023-06-02T06:35:15.985Z,23.30
2023-06-02T06:40:17.159Z,23.45
2023-06-02T06:45:18.352Z,23.66
2023-06-02T06:50:21.320Z,23.80
2023-06-02T06:55:22.572Z,23.94
2023-06-02T07:00:24.862Z,24.21
2023-06-02T07:05:26.146Z,24.45
2023-06-02T07:10:27.614Z,24.70
2023-06-02T07:15:29.398Z,24.94
2023-06-02T07:20:32.580Z,25.12
2023-06-02T07:25:33.751Z,25.34
2023-06-02T07:30:34.898Z,25.58
2023-06-02T07:35:35.961Z,25.79
2023-06-02T07:40:37.130Z,26.00
2023-06-02T07:45:38.184Z,26.23
2023-06-02T07:50:39.338Z,26.45
2023-06-02T07:55:40.586Z,26.68
2023-06-02T08:00:41.974Z,26.87
2023-06-02T08:05:42.969Z,27.04
2023-06-02T08:10:43.991Z,27.27
2023-06-02T08:15:45.890Z,27.50
2023-06-02T08:20:50.381Z,27.63
2023-06-02T08:25:52.016Z,27.87
2023-06-02T08:30:53.038Z,28.10
2023-06-02T08:35:54.175Z,28.29
2023-06-02T08:40:55.626Z,28.40
2023-06-02T08:45:56.964Z,28.66
2023-06-02T08:50:58.016Z,28.91
2023-06-02T08:55:59.093Z,29.27
2023-06-02T09:01:00.075Z,29.51
2023-06-02T09:06:01.475Z,29.61
2023-06-02T09:11:13.696Z,29.47
2023-06-02T09:16:14.798Z,28.96
2023-06-02T09:21:30.025Z,28.60
2023-06-02T09:26:32.027Z,28.62
2023-06-02T09:31:45.772Z,28.87
2023-06-02T09:36:48.465Z,29.15
2023-06-02T09:41:50.890Z,29.52
2023-06-02T09:46:52.248Z,29.95
2023-06-02T09:51:53.511Z,30.34
2023-06-02T09:56:54.594Z,30.37
2023-06-02T10:01:55.875Z,29.96
2023-06-02T10:07:07.966Z,29.61
2023-06-02T10:12:15.840Z,29.53
2023-06-02T10:17:48.514Z,29.83
2023-06-02T10:22:55.738Z,30.04
2023-06-02T10:27:56.817Z,30.70
2023-06-02T10:32:57.929Z,31.26
2023-06-02T10:38:24.552Z,31.78
2023-06-02T10:43:25.675Z,32.06
2023-06-02T10:48:40.349Z,31.42
2023-06-02T10:53:59.899Z,30.85
2023-06-02T10:59:02.701Z,30.46
2023-06-02T11:04:25.445Z,30.53
2023-06-02T11:09:33.062Z,30.86
2023-06-02T11:14:59.644Z,31.43
2023-06-02T11:20:01.125Z,31.36
2023-06-02T11:25:02.529Z,31.73
2023-06-02T11:30:12.214Z,31.75
2023-06-02T11:35:13.485Z,32.42
2023-06-02T11:40:14.598Z,33.14
2023-06-02T11:45:19.597Z,33.79
2023-06-02T11:50:21.163Z,34.47
2023-06-02T11:55:26.451Z,34.86
2023-06-02T12:00:30.408Z,35.08
2023-06-02T12:05:34.858Z,35.56
2023-06-02T12:10:36.148Z,36.05
2023-06-02T12:15:40.084Z,36.54
2023-06-02T12:20:42.057Z,36.76
2023-06-02T12:25:43.214Z,36.92
2023-06-02T12:30:47.289Z,37.10
2023-06-02T12:35:48.268Z,36.13
2023-06-02T12:40:51.104Z,35.57
2023-06-02T12:45:52.072Z,36.06
2023-06-02T12:50:53.137Z,37.22
2023-06-02T12:55:54.187Z,37.29
2023-06-02T13:00:55.380Z,35.88
2023-06-02T13:05:57.332Z,34.97
2023-06-02T13:10:58.337Z,34.98
2023-06-02T13:15:59.419Z,35.32
2023-06-02T13:21:00.517Z,35.75
2023-06-02T13:26:01.942Z,35.33
2023-06-02T13:31:03.573Z,34.84
2023-06-02T13:36:05.422Z,34.68
2023-06-02T13:41:07.513Z,34.73
2023-06-02T13:46:08.966Z,34.48
2023-06-02T13:51:10.849Z,34.15
2023-06-02T13:56:11.986Z,34.17
2023-06-02T14:01:13.268Z,33.65
2023-06-02T14:06:14.742Z,33.26
2023-06-02T14:11:16.017Z,32.85
2023-06-02T14:16:17.615Z,32.49
2023-06-02T14:21:19.065Z,32.22
2023-06-02T14:26:20.309Z,31.88
2023-06-02T14:31:21.400Z,31.49
2023-06-02T14:36:22.627Z,31.01
2023-06-02T14:41:24.100Z,29.82
2023-06-02T14:46:25.488Z,28.58
2023-06-02T14:51:26.555Z,28.14
2023-06-02T14:56:27.996Z,27.65
2023-06-02T15:01:33.037Z,27.32
2023-06-02T15:06:34.530Z,27.04
2023-06-02T15:11:35.677Z,26.69
2023-06-02T15:16:36.940Z,26.54
2023-06-02T15:21:38.453Z,26.49
2023-06-02T15:26:39.879Z,26.43
2023-06-02T15:31:41.089Z,26.25
2023-06-02T15:36:42.304Z,25.97
2023-06-02T15:41:46.503Z,25.65
2023-06-02T15:46:47.490Z,25.45
2023-06-02T15:51:49.795Z,25.24
2023-06-02T15:56:51.764Z,25.11
2023-06-02T16:01:53.035Z,25.02
2023-06-02T16:06:54.164Z,24.97
2023-06-02T16:11:55.462Z,24.88
2023-06-02T16:16:56.763Z,24.79
2023-06-02T16:21:57.849Z,24.79
2023-06-02T16:26:58.852Z,24.81
2023-06-02T16:32:00.038Z,24.83
2023-06-02T16:37:02.081Z,24.84
2023-06-02T16:42:03.754Z,24.77
2023-06-02T16:47:05.840Z,24.78
2023-06-02T16:52:08.624Z,24.72
2023-06-02T16:57:10.943Z,24.74
2023-06-02T17:02:12.293Z,24.83
2023-06-02T17:07:13.245Z,24.89
2023-06-02T17:12:14.464Z,24.87
2023-06-02T17:17:15.777Z,24.84
2023-06-02T17:22:17.062Z,24.82
2023-06-02T17:27:18.197Z,24.79
2023-06-02T17:32:19.635Z,24.76
2023-06-02T17:37:21.130Z,24.70
2023-06-02T17:42:23.831Z,24.60
2023-06-02T17:47:24.965Z,24.55
2023-06-02T17:52:26.018Z,24.49
2023-06-02T17:57:27.111Z,24.43
2023-06-02T18:02:30.372Z,24.33
2023-06-02T18:07:31.611Z,24.25
2023-06-02T18:12:32.810Z,24.17
2023-06-02T18:17:34.050Z,24.11
2023-06-02T18:22:36.403Z,24.04
2023-06-02T18:27:37.442Z,23.97
2023-06-02T18:32:38.539Z,23.89
2023-06-02T18:37:39.682Z,23.80
2023-06-02T18:42:40.775Z,23.69
2023-06-02T18:47:41.816Z,23.55
2023-06-02T18:52:42.877Z,23.49
2023-06-02T18:57:44.016Z,23.45
2023-06-02T19:02:45.293Z,23.42
2023-06-02T19:07:46.559Z,23.39
2023-06-02T19:12:47.829Z,23.38
2023-06-02T19:17:49.395Z,23.32
2023-06-02T19:22:50.764Z,23.28
2023-06-02T19:27:52.122Z,23.25
2023-06-02T19:32:53.393Z,23.16
2023-06-02T19:37:56.679Z,23.02
2023-06-02T19:42:57.779Z,22.99
2023-06-02T19:47:59.306Z,23.01
2023-06-02T19:53:00.592Z,23.04
2023-06-02T19:58:01.686Z,23.04
2023-06-02T20:03:02.931Z,23.02
2023-06-02T20:08:04.302Z,23.01
2023-06-02T20:13:05.450Z,23.03
2023-06-02T20:18:06.743Z,23.05
2023-06-02T20:23:09.089Z,23.02
2023-06-02T20:28:11.457Z,22.96
2023-06-02T20:33:13.947Z,22.88
2023-06-02T20:38:14.988Z,22.82
2023-06-02T20:43:16.229Z,22.82
2023-06-02T20:48:17.318Z,22.79
2023-06-02T20:53:18.629Z,22.78
2023-06-02T20:58:19.753Z,22.74
2023-06-02T21:03:22.185Z,22.64
2023-06-02T21:08:24.979Z,22.54
2023-06-02T21:13:26.708Z,22.47
2023-06-02T21:18:28.122Z,22.47
2023-06-02T21:23:29.620Z,22.44
2023-06-02T21:28:30.816Z,22.32
2023-06-02T21:33:32.005Z,22.23
2023-06-02T21:38:33.134Z,22.19
2023-06-02T21:43:34.328Z,22.15
2023-06-02T21:48:35.592Z,22.09
2023-06-02T21:53:36.754Z,22.03
2023-06-02T21:58:37.937Z,21.94
2023-06-02T22:03:40.159Z,21.87
2023-06-02T22:08:41.572Z,21.82
2023-06-02T22:13:42.837Z,21.71
2023-06-02T22:18:44.102Z,21.62
2023-06-02T22:23:45.146Z,21.57
2023-06-02T22:28:46.114Z,21.51
2023-06-02T22:33:47.070Z,21.44
2023-06-02T22:38:48.093Z,21.35
2023-06-02T22:43:49.306Z,21.29
2023-06-02T22:48:50.242Z,21.23
2023-06-02T22:53:51.648Z,21.17
2023-06-02T22:58:52.901Z,21.12
2023-06-02T23:03:54.070Z,21.10
2023-06-02T23:08:55.307Z,21.11
2023-06-02T23:13:56.276Z,21.10
2023-06-02T23:18:57.422Z,21.10
2023-06-02T23:23:58.753Z,21.05
2023-06-02T23:29:00.149Z,20.99
2023-06-02T23:34:01.074Z,20.88
2023-06-02T23:39:02.287Z,20.81
2023-06-02T23:44:03.398Z,20.77
2023-06-02T23:49:07.154Z,20.72
2023-06-02T23:54:08.095Z,20.67
2023-06-02T23:59:09.177Z,20.62
